Time;durP1;ratioP1;P1;durP2;ratioP2;P2;SDS_P1;SDS_P2;PMS_P1;PMS_P2;Temp;Humidity;BMP_temperature;BMP_pressure;BME280_temperature;BME280_humidity;BME280_pressure;Samples;Min_cycle;Max_cycle;Signal;HPM_P1;HPM_P2
2022/04/22 00:00:38;;;;;;;25.20;16.63;;;11.80;76.70;;;;;;20998757;28;20243;-63
2022/04/22 00:11:29;;;;;;;24.27;17.23;;;11.80;77.50;;;;;;20999025;28;20207;-62
2022/04/22 00:21:02;;;;;;;26.53;17.60;;;11.70;77.70;;;;;;20995448;28;20724;-62
2022/04/22 00:31:04;;;;;;;25.40;16.83;;;11.60;77.90;;;;;;20995573;28;20252;-62
2022/04/22 00:41:06;;;;;;;24.17;16.80;;;11.60;78.20;;;;;;20997340;28;20235;-68
2022/04/22 00:51:09;;;;;;;24.10;17.80;;;11.50;78.90;;;;;;20994876;28;20210;-68
2022/04/22 01:01:11;;;;;;;27.10;18.17;;;11.40;79.10;;;;;;20995049;28;20239;-66
2022/04/22 01:11:14;;;;;;;25.73;18.20;;;11.40;79.80;;;;;;20995116;28;20214;-67
2022/04/22 01:21:16;;;;;;;27.10;18.07;;;11.30;80.00;;;;;;20994229;28;20239;-64
2022/04/22 01:31:20;;;;;;;25.23;17.70;;;11.30;80.60;;;;;;20993906;28;20213;-67
2022/04/22 01:41:22;;;;;;;24.60;17.57;;;11.20;80.90;;;;;;20994066;28;20231;-67
2022/04/22 01:51:24;;;;;;;25.27;18.10;;;11.20;80.40;;;;;;20993395;28;20213;-62
2022/04/22 02:01:25;;;;;;;26.97;17.90;;;11.00;80.80;;;;;;20992884;28;20584;-61
2022/04/22 02:11:27;;;;;;;27.77;18.50;;;11.00;81.60;;;;;;21000967;28;20207;-64
2022/04/22 02:21:29;;;;;;;26.70;18.47;;;10.80;81.50;;;;;;21010337;28;20306;-62
2022/04/22 02:31:31;;;;;;;25.80;18.07;;;10.70;81.60;;;;;;21005171;28;20235;-61
2022/04/22 02:51:53;;;;;;;25.20;18.07;;;10.60;82.60;;;;;;21006436;28;20206;-63
2022/04/22 03:01:55;;;;;;;25.63;17.70;;;10.60;82.70;;;;;;21005049;28;20579;-64
2022/04/22 03:11:57;;;;;;;22.83;17.00;;;10.60;82.50;;;;;;21004929;28;20214;-62
2022/04/22 03:21:59;;;;;;;24.43;17.23;;;10.40;82.00;;;;;;21002708;28;20256;-66
2022/04/22 03:32:02;;;;;;;23.43;17.10;;;10.50;82.80;;;;;;21002572;28;20209;-62
2022/04/22 03:42:04;;;;;;;23.33;17.13;;;10.40;81.90;;;;;;21001596;28;20241;-66
2022/04/22 03:52:06;;;;;;;26.33;18.00;;;10.40;82.10;;;;;;21000508;28;20215;-62
2022/04/22 04:02:08;;;;;;;30.13;19.80;;;10.10;81.90;;;;;;21000784;28;20701;-63
2022/04/22 04:32:50;;;;;;;21.10;15.80;;;9.90;84.00;;;;;;20912315;28;20570;-63
2022/04/22 04:42:53;;;;;;;20.77;15.30;;;10.10;83.00;;;;;;20913905;28;20242;-61
2022/04/22 04:52:55;;;;;;;22.87;15.87;;;10.00;82.70;;;;;;20913707;28;20305;-63
2022/04/22 05:02:56;;;;;;;23.30;15.33;;;10.10;83.20;;;;;;20912398;28;20238;-62
2022/04/22 05:13:03;;;;;;;19.87;14.10;;;10.20;83.10;;;;;;20911926;28;20215;-68
2022/04/22 05:23:05;;;;;;;23.97;13.20;;;10.30;83.60;;;;;;20941649;28;20242;-62
2022/04/22 05:33:07;;;;;;;18.83;12.63;;;10.80;81.00;;;;;;20994184;28;20207;-62
2022/04/22 05:43:09;;;;;;;15.07;11.60;;;10.90;80.20;;;;;;20996786;28;20231;-61
2022/04/22 05:53:10;;;;;;;16.77;13.00;;;11.00;80.60;;;;;;21012651;28;20213;-61
2022/04/22 06:03:12;;;;;;;14.17;11.47;;;11.30;78.20;;;;;;21033390;28;20226;-62
2022/04/22 06:13:14;;;;;;;16.80;11.87;;;11.50;77.40;;;;;;21093076;28;20211;-62
2022/04/22 06:23:15;;;;;;;17.53;11.53;;;11.70;76.50;;;;;;21053851;28;20297;-61
2022/04/22 06:33:18;;;;;;;19.53;14.20;;;12.00;76.40;;;;;;21005169;28;20212;-62
2022/04/22 06:53:41;;;;;;;14.73;11.63;;;12.50;73.70;;;;;;21059698;28;20563;-63
2022/04/22 07:03:43;;;;;;;15.90;11.53;;;12.40;72.90;;;;;;21070087;28;20238;-64
2022/04/22 07:13:45;;;;;;;15.97;12.17;;;12.50;73.30;;;;;;21007297;28;20241;-63
2022/04/22 07:23:48;;;;;;;17.27;11.97;;;12.90;71.70;;;;;;21040491;28;20303;-63
2022/04/22 07:33:51;;;;;;;18.93;13.10;;;13.10;70.70;;;;;;21085241;28;20296;-63
2022/04/22 07:54:14;;;;;;;14.67;11.87;;;13.50;68.90;;;;;;21084829;28;20245;-64
2022/04/22 08:04:16;;;;;;;15.57;11.90;;;13.60;68.20;;;;;;21082400;28;20248;-62
2022/04/22 08:14:18;;;;;;;15.23;12.07;;;13.80;67.00;;;;;;21082192;28;20205;-64
2022/04/22 08:24:20;;;;;;;16.93;11.43;;;14.00;66.80;;;;;;21080919;28;20720;-66
2022/04/22 08:34:21;;;;;;;15.73;11.57;;;14.40;65.80;;;;;;21039843;28;20205;-64
2022/04/22 08:44:24;;;;;;;16.07;11.87;;;14.60;64.10;;;;;;21079829;28;20238;-63
2022/04/22 08:54:27;;;;;;;21.17;13.50;;;14.70;63.50;;;;;;21003014;28;20213;-64
2022/04/22 09:04:28;;;;;;;13.83;10.03;;;15.00;62.60;;;;;;20995122;28;20249;-67
2022/04/22 09:14:31;;;;;;;14.43;9.70;;;15.40;63.10;;;;;;20993668;28;20219;-64
2022/04/22 09:24:49;;;;;;;16.90;9.33;;;15.80;62.30;;;;;;20991997;28;20251;-65
2022/04/22 09:34:52;;;;;;;13.63;9.47;;;16.00;61.40;;;;;;20994124;28;20212;-67
2022/04/22 09:44:55;;;;;;;15.07;9.30;;;16.30;60.10;;;;;;20993655;28;20636;-66
2022/04/22 09:55:01;;;;;;;12.63;9.13;;;16.40;59.70;;;;;;20993425;28;20201;-64
2022/04/22 10:05:09;;;;;;;15.83;8.27;;;16.50;56.80;;;;;;21069044;28;20236;-64
2022/04/22 10:15:12;;;;;;;10.53;8.33;;;16.50;55.70;;;;;;21082836;28;20309;-63
2022/04/22 10:25:14;;;;;;;14.10;8.50;;;16.80;55.00;;;;;;21076691;28;20244;-63
2022/04/22 10:35:16;;;;;;;10.30;7.57;;;16.80;55.10;;;;;;21087591;28;20209;-64
2022/04/22 10:55:40;;;;;;;9.90;8.33;;;17.10;53.70;;;;;;21088595;28;20656;-63
2022/04/22 11:06:07;;;;;;;16.53;8.50;;;17.30;53.30;;;;;;21089226;28;20829;-64
2022/04/22 11:16:22;;;;;;;11.13;8.13;;;17.40;53.40;;;;;;21087463;28;20207;-62
2022/04/22 11:26:25;;;;;;;12.33;8.23;;;17.40;54.00;;;;;;21086254;28;20249;-65
2022/04/22 11:36:27;;;;;;;8.70;7.23;;;17.60;53.50;;;;;;21086883;28;20209;-67
2022/04/22 11:46:29;;;;;;;7.50;6.50;;;17.80;52.80;;;;;;21067436;28;20320;-67
2022/04/22 11:56:30;;;;;;;9.67;7.00;;;18.30;51.70;;;;;;21046254;28;20216;-67
2022/04/22 12:06:32;;;;;;;7.57;6.77;;;18.70;50.30;;;;;;21093075;28;20583;-64
2022/04/22 12:16:34;;;;;;;8.83;6.20;;;19.00;49.20;;;;;;21090239;28;20567;-63
2022/04/22 12:26:36;;;;;;;8.83;6.43;;;19.40;48.50;;;;;;21081604;28;20270;-64
2022/04/22 12:36:54;;;;;;;6.23;5.40;;;19.40;49.00;;;;;;21081431;28;20314;-63
2022/04/22 12:57:39;;;;;;;6.17;5.57;;;20.30;46.80;;;;;;21078576;28;20209;-65
2022/04/22 13:07:45;;;;;;;8.00;5.90;;;20.40;47.20;;;;;;21061217;28;20331;-67
2022/04/22 13:17:51;;;;;;;7.47;6.00;;;20.40;46.80;;;;;;21079084;28;20206;-69
2022/04/22 13:27:54;;;;;;;12.17;6.33;;;20.60;46.60;;;;;;21078318;28;20249;-67
2022/04/22 13:37:56;;;;;;;8.20;6.43;;;20.80;46.00;;;;;;21078714;28;20684;-65
2022/04/22 13:58:18;;;;;;;7.27;5.90;;;21.40;44.70;;;;;;21077345;28;20207;-67
2022/04/22 14:08:20;;;;;;;10.97;5.53;;;24.20;42.60;;;;;;21086916;28;20662;-65
2022/04/22 14:18:21;;;;;;;8.63;5.75;;;25.90;40.40;;;;;;21092352;28;20249;-68
2022/04/22 14:28:25;;;;;;;11.20;6.10;;;27.00;37.20;;;;;;21092575;28;20595;-65
2022/04/22 14:38:26;;;;;;;7.78;6.18;;;26.80;37.30;;;;;;21091577;28;20237;-68
2022/04/22 14:48:28;;;;;;;8.45;5.68;;;27.00;37.00;;;;;;21089817;28;20227;-67
2022/04/22 14:58:30;;;;;;;11.73;6.27;;;26.80;36.30;;;;;;21089114;28;20205;-67
2022/04/22 15:08:32;;;;;;;8.50;5.83;;;24.40;37.90;;;;;;21088972;28;20241;-64
2022/04/22 15:28:54;;;;;;;6.03;5.30;;;24.00;37.90;;;;;;21086883;28;20338;-66
2022/04/22 15:38:58;;;;;;;8.73;6.00;;;23.70;37.90;;;;;;21086615;28;20636;-66
2022/04/22 15:49:00;;;;;;;8.67;5.90;;;23.10;38.20;;;;;;21084733;28;20237;-65
2022/04/22 15:59:02;;;;;;;6.33;5.40;;;22.20;39.90;;;;;;21091430;28;20301;-65
2022/04/22 16:09:03;;;;;;;12.63;5.50;;;21.60;40.50;;;;;;21072196;28;20693;-65
2022/04/22 16:19:07;;;;;;;9.47;5.10;;;22.10;40.20;;;;;;21084228;28;20214;-64
2022/04/22 16:29:08;;;;;;;7.70;5.40;;;22.00;40.40;;;;;;21081913;28;20256;-65
2022/04/22 16:39:10;;;;;;;9.77;5.50;;;20.90;41.20;;;;;;21099115;28;20302;-66
2022/04/22 16:49:14;;;;;;;7.23;5.80;;;19.80;42.60;;;;;;21082764;28;20240;-68
2022/04/22 16:59:17;;;;;;;12.00;5.90;;;19.10;43.70;;;;;;21080103;28;20209;-65
2022/04/22 17:09:23;;;;;;;7.73;6.50;;;18.20;44.50;;;;;;21079890;28;20265;-69
2022/04/22 17:29:45;;;;;;;8.50;7.30;;;17.90;45.80;;;;;;21078409;28;20238;-68
2022/04/22 17:39:47;;;;;;;9.40;7.30;;;17.80;46.20;;;;;;21084308;28;20248;-67
2022/04/22 17:49:49;;;;;;;11.40;7.97;;;17.70;46.60;;;;;;21094914;28;20237;-65
2022/04/22 17:59:51;;;;;;;14.93;9.40;;;17.10;47.70;;;;;;21094408;28;20538;-63
2022/04/22 18:09:52;;;;;;;12.73;9.57;;;17.00;48.60;;;;;;21093667;28;20285;-64
2022/04/22 18:19:54;;;;;;;12.97;9.43;;;16.60;49.20;;;;;;21092548;28;20234;-64
2022/04/22 18:29:56;;;;;;;15.40;10.13;;;;;;;;;;21091383;28;20239;-68
2022/04/22 18:39:59;;;;;;;14.53;11.10;;;16.00;50.20;;;;;;21091203;28;20260;-63
2022/04/22 18:50:00;;;;;;;16.83;11.10;;;15.80;51.20;;;;;;21090172;28;20237;-63
2022/04/22 19:00:06;;;;;;;13.77;11.43;;;15.60;51.80;;;;;;21089410;28;20689;-68
2022/04/22 19:10:08;;;;;;;14.50;11.80;;;15.40;52.50;;;;;;21088437;28;20241;-62
2022/04/22 19:20:10;;;;;;;19.87;11.83;;;15.30;52.90;;;;;;21087640;28;20223;-66
2022/04/22 19:30:11;;;;;;;17.37;12.13;;;15.20;54.00;;;;;;21069590;28;20237;-64
2022/04/22 19:50:33;;;;;;;16.70;13.03;;;14.90;54.00;;;;;;21085789;28;20244;-63
2022/04/22 20:00:51;;;;;;;17.13;13.97;;;14.70;54.60;;;;;;21083257;28;20223;-66
2022/04/22 20:10:55;;;;;;;22.10;13.80;;;14.50;55.10;;;;;;21083193;28;20239;-68
2022/04/22 20:20:58;;;;;;;18.60;14.37;;;14.10;55.50;;;;;;21081870;28;20325;-68
2022/04/22 20:31:01;;;;;;;18.80;14.00;;;14.00;56.20;;;;;;21081207;28;20238;-67
2022/04/22 20:41:05;;;;;;;16.63;13.43;;;13.90;56.40;;;;;;21063011;28;20213;-67
2022/04/22 20:51:06;;;;;;;17.33;14.13;;;13.70;56.40;;;;;;21080412;28;20231;-69
2022/04/22 21:01:09;;;;;;;18.63;14.30;;;13.70;56.90;;;;;;21080604;28;20214;-68
2022/04/22 21:11:11;;;;;;;19.53;14.93;;;13.60;57.00;;;;;;21078757;28;20327;-68
2022/04/22 21:21:13;;;;;;;21.67;15.27;;;13.60;57.70;;;;;;21078767;28;20262;-64
2022/04/22 21:31:15;;;;;;;19.07;15.00;;;13.40;57.40;;;;;;21059714;28;20227;-68
2022/04/22 21:41:18;;;;;;;18.17;14.17;;;13.30;57.80;;;;;;21077588;28;20218;-64
2022/04/22 21:51:23;;;;;;;20.67;14.90;;;13.30;58.40;;;;;;21079527;28;20630;-66
2022/04/22 22:01:25;;;;;;;19.73;14.13;;;13.30;58.70;;;;;;21080318;28;20207;-65
2022/04/22 22:11:26;;;;;;;18.53;15.17;;;13.20;58.60;;;;;;21078251;28;20257;-64
2022/04/22 22:21:28;;;;;;;18.57;14.47;;;13.00;59.10;;;;;;21077839;28;20236;-64
2022/04/22 22:31:30;;;;;;;20.00;14.27;;;13.00;59.30;;;;;;21071011;28;20238;-63
2022/04/22 22:41:32;;;;;;;18.33;14.53;;;13.00;59.90;;;;;;21090671;28;20209;-69
2022/04/22 22:51:33;;;;;;;22.13;14.10;;;12.90;60.30;;;;;;21090366;28;20620;-69
2022/04/22 23:01:35;;;;;;;19.53;14.43;;;12.80;60.30;;;;;;21089077;28;20199;-67
2022/04/22 23:11:37;;;;;;;19.17;13.73;;;12.80;61.10;;;;;;21088175;28;20227;-68
2022/04/22 23:21:40;;;;;;;20.40;14.50;;;12.90;61.00;;;;;;21087495;28;20239;-67
2022/04/22 23:31:42;;;;;;;17.87;14.13;;;13.00;61.70;;;;;;21086453;28;20230;-64
2022/04/22 23:41:44;;;;;;;17.70;14.17;;;13.10;61.90;;;;;;21085520;28;20275;-68
2022/04/22 23:51:46;;;;;;;15.60;13.00;;;13.20;62.40;;;;;;21085433;28;20690;-68
